createdAt,value
2018-12-21T00:02:32.943Z,8.90
2018-12-21T00:05:05.127Z,8.90
2018-12-21T00:07:37.178Z,8.80
2018-12-21T00:10:09.088Z,8.90
2018-12-21T00:12:43.324Z,8.90
2018-12-21T00:15:16.344Z,8.90
2018-12-21T00:17:50.604Z,8.90
2018-12-21T00:20:22.508Z,8.90
2018-12-21T00:22:53.934Z,8.90
2018-12-21T00:25:28.134Z,9.00
2018-12-21T00:28:02.490Z,8.90
2018-12-21T00:30:33.882Z,8.90
2018-12-21T00:33:11.152Z,8.90
2018-12-21T00:35:49.294Z,8.90
2018-12-21T00:38:28.971Z,9.00
2018-12-21T00:41:06.081Z,8.90
2018-12-21T00:43:51.230Z,9.00
2018-12-21T00:46:27.796Z,9.00
2018-12-21T00:48:59.525Z,9.10
2018-12-21T00:51:33.599Z,9.10
2018-12-21T00:54:06.843Z,9.10
2018-12-21T00:56:38.502Z,9.10
2018-12-21T00:59:13.551Z,9.10
2018-12-21T01:01:45.491Z,9.20
2018-12-21T01:04:17.839Z,9.20
2018-12-21T01:06:49.580Z,9.20
2018-12-21T01:09:23.363Z,9.10
2018-12-21T01:11:55.326Z,9.20
2018-12-21T01:14:29.335Z,9.20
2018-12-21T01:17:01.177Z,9.20
2018-12-21T01:19:32.517Z,9.20
2018-12-21T01:22:06.561Z,9.20
2018-12-21T01:24:38.662Z,9.20
2018-12-21T01:27:14.525Z,9.20
2018-12-21T01:29:46.759Z,9.10
2018-12-21T01:32:18.232Z,9.10
2018-12-21T01:34:50.644Z,9.10
2018-12-21T01:37:22.777Z,9.10
2018-12-21T01:39:55.269Z,9.00
2018-12-21T01:42:28.795Z,9.00
2018-12-21T01:45:03.318Z,9.00
2018-12-21T01:47:34.368Z,9.00
2018-12-21T01:50:06.044Z,9.00
2018-12-21T01:52:37.447Z,9.00
2018-12-21T01:55:11.726Z,9.10
2018-12-21T01:57:42.976Z,9.10
2018-12-21T02:00:15.702Z,9.10
2018-12-21T02:02:47.216Z,9.10
2018-12-21T02:05:19.802Z,9.10
2018-12-21T02:07:49.292Z,9.10
2018-12-21T02:10:21.161Z,9.00
2018-12-21T02:12:55.051Z,9.00
2018-12-21T02:15:27.309Z,9.00
2018-12-21T02:18:01.228Z,9.00
2018-12-21T02:20:37.065Z,9.00
2018-12-21T02:23:08.458Z,9.00
2018-12-21T02:33:06.626Z,8.90
2018-12-21T02:35:40.531Z,8.90
2018-12-21T02:38:15.194Z,8.90
2018-12-21T02:40:47.300Z,8.90
2018-12-21T02:43:19.234Z,8.90
2018-12-21T02:45:50.524Z,8.90
2018-12-21T02:48:24.982Z,8.90
2018-12-21T02:50:59.102Z,8.90
2018-12-21T02:53:33.609Z,8.90
2018-12-21T02:56:05.102Z,8.80
2018-12-21T02:58:36.446Z,8.80
2018-12-21T03:01:07.346Z,8.80
2018-12-21T03:03:38.665Z,8.80
2018-12-21T03:06:12.904Z,8.80
2018-12-21T03:08:44.863Z,8.80
2018-12-21T03:11:16.546Z,8.80
2018-12-21T03:13:51.219Z,8.80
2018-12-21T03:16:22.206Z,8.90
2018-12-21T03:18:56.952Z,8.90
2018-12-21T03:21:27.865Z,8.90
2018-12-21T03:24:02.128Z,8.90
2018-12-21T03:26:33.320Z,8.90
2018-12-21T03:29:04.768Z,8.90
2018-12-21T03:31:36.503Z,8.90
2018-12-21T03:34:11.814Z,8.90
2018-12-21T03:36:43.071Z,8.90
2018-12-21T03:39:14.395Z,8.90
2018-12-21T03:41:45.961Z,8.90
2018-12-21T03:44:17.239Z,8.90
2018-12-21T03:46:51.280Z,9.00
2018-12-21T03:49:23.439Z,8.90
2018-12-21T03:51:57.207Z,8.90
2018-12-21T03:54:29.546Z,8.90
2018-12-21T03:57:01.156Z,8.90
2018-12-21T03:59:43.676Z,9.00
2018-12-21T04:02:15.101Z,9.00
2018-12-21T04:04:46.504Z,9.00
2018-12-21T04:07:20.676Z,8.90
2018-12-21T04:09:55.032Z,8.90
2018-12-21T04:12:26.736Z,8.90
2018-12-21T04:15:00.534Z,9.00
2018-12-21T04:17:31.929Z,8.90
2018-12-21T04:20:05.969Z,8.90
2018-12-21T04:22:39.623Z,8.90
2018-12-21T04:25:11.405Z,9.00
2018-12-21T04:27:42.826Z,9.00
2018-12-21T04:30:14.636Z,9.00
2018-12-21T04:32:45.883Z,9.00
2018-12-21T04:35:19.419Z,9.00
2018-12-21T04:37:50.687Z,9.10
2018-12-21T04:40:24.598Z,9.10
2018-12-21T04:42:58.150Z,9.20
2018-12-21T04:45:30.326Z,9.20
2018-12-21T04:48:01.733Z,9.30
2018-12-21T04:50:32.924Z,9.30
2018-12-21T04:53:04.635Z,9.40
2018-12-21T04:55:36.672Z,9.40
2018-12-21T04:58:10.293Z,9.60
2018-12-21T05:00:42.751Z,9.60
2018-12-21T05:03:14.400Z,9.70
2018-12-21T05:05:45.822Z,9.80
2018-12-21T05:08:17.574Z,9.80
2018-12-21T05:10:51.917Z,9.90
2018-12-21T05:13:22.939Z,9.90
2018-12-21T05:15:55.909Z,10.00
2018-12-21T05:18:29.815Z,10.00
2018-12-21T05:21:04.317Z,10.10
2018-12-21T05:23:37.928Z,10.10
2018-12-21T05:26:09.868Z,10.10
2018-12-21T05:28:40.851Z,10.10
2018-12-21T05:31:15.805Z,10.10
2018-12-21T05:33:49.452Z,10.10
2018-12-21T05:36:23.895Z,10.10
2018-12-21T05:38:55.398Z,10.10
2018-12-21T05:41:27.042Z,10.20
2018-12-21T05:43:58.836Z,10.20
2018-12-21T05:46:30.054Z,10.30
2018-12-21T05:49:01.918Z,10.30
2018-12-21T05:51:33.476Z,10.30
2018-12-21T05:54:04.493Z,10.30
2018-12-21T05:56:36.111Z,10.40
2018-12-21T05:59:08.682Z,10.40
2018-12-21T06:01:40.839Z,10.40
2018-12-21T06:04:11.978Z,10.40
2018-12-21T06:06:43.671Z,10.40
2018-12-21T06:09:17.703Z,10.40
2018-12-21T06:11:50.454Z,10.40
2018-12-21T06:14:21.471Z,10.40
2018-12-21T06:16:53.787Z,10.40
2018-12-21T06:19:25.887Z,10.50
2018-12-21T06:21:58.345Z,10.50
2018-12-21T06:24:30.007Z,10.50
2018-12-21T06:27:03.255Z,10.50
2018-12-21T06:29:35.415Z,10.50
2018-12-21T06:32:10.841Z,10.50
2018-12-21T06:34:41.925Z,10.50
2018-12-21T06:37:16.343Z,10.50
2018-12-21T06:39:47.336Z,10.50
2018-12-21T06:42:22.739Z,10.60
2018-12-21T06:44:58.847Z,10.60
2018-12-21T06:47:33.911Z,10.60
2018-12-21T06:50:14.155Z,10.50
2018-12-21T06:52:46.278Z,10.50
2018-12-21T06:55:17.440Z,10.60
2018-12-21T06:57:48.977Z,10.60
2018-12-21T07:02:49.682Z,10.60
2018-12-21T07:05:22.953Z,10.60
2018-12-21T07:07:54.523Z,10.70
2018-12-21T07:10:28.085Z,10.70
2018-12-21T07:13:02.373Z,10.70
2018-12-21T07:15:36.935Z,10.70
2018-12-21T07:18:09.271Z,10.70
2018-12-21T07:20:43.398Z,10.70
2018-12-21T07:23:26.887Z,10.80
2018-12-21T07:25:56.333Z,10.80
2018-12-21T07:28:28.271Z,10.80
2018-12-21T07:30:59.941Z,10.80
2018-12-21T07:33:34.392Z,10.80
2018-12-21T07:36:08.473Z,10.90
2018-12-21T07:38:40.651Z,11.00
2018-12-21T07:41:11.788Z,11.10
2018-12-21T07:43:48.807Z,11.10
2018-12-21T07:46:24.066Z,11.10
2018-12-21T07:48:57.014Z,11.20
2018-12-21T07:51:28.351Z,11.20
2018-12-21T07:54:02.315Z,11.30
2018-12-21T07:56:33.368Z,11.40
2018-12-21T07:59:06.358Z,11.40
2018-12-21T08:01:38.287Z,11.40
2018-12-21T08:04:11.431Z,11.40
2018-12-21T08:06:42.369Z,11.50
2018-12-21T08:09:16.404Z,11.60
2018-12-21T08:11:50.094Z,11.60
2018-12-21T08:14:24.770Z,11.60
2018-12-21T08:16:55.794Z,11.70
2018-12-21T08:19:32.126Z,11.80
2018-12-21T08:22:03.674Z,11.90
2018-12-21T08:24:39.993Z,11.90
2018-12-21T08:27:11.229Z,12.00
2018-12-21T08:29:45.730Z,12.00
2018-12-21T08:32:19.587Z,12.10
2018-12-21T08:34:54.416Z,12.10
2018-12-21T08:37:26.142Z,12.20
2018-12-21T08:40:00.089Z,12.30
2018-12-21T08:42:31.298Z,12.30
2018-12-21T08:45:08.166Z,12.30
2018-12-21T08:47:41.564Z,12.30
2018-12-21T08:50:16.042Z,12.30
2018-12-21T08:52:50.026Z,12.30
2018-12-21T08:55:25.740Z,12.30
2018-12-21T08:57:59.230Z,12.30
2018-12-21T09:00:31.280Z,12.40
2018-12-21T09:03:02.854Z,12.40
2018-12-21T09:05:35.450Z,12.40
2018-12-21T09:08:06.508Z,12.40
2018-12-21T09:10:41.921Z,12.50
2018-12-21T09:13:15.920Z,12.50
2018-12-21T09:15:56.793Z,12.50
2018-12-21T09:18:28.236Z,12.50
2018-12-21T09:20:59.563Z,12.60
2018-12-21T09:23:30.689Z,12.70
2018-12-21T09:26:03.234Z,12.60
2018-12-21T09:28:34.903Z,12.60
2018-12-21T09:31:09.034Z,12.60
2018-12-21T09:33:49.215Z,12.60
2018-12-21T09:36:23.404Z,12.60
2018-12-21T09:38:54.691Z,12.60
2018-12-21T09:41:29.291Z,12.60
2018-12-21T09:44:00.576Z,12.60
2018-12-21T09:46:32.833Z,12.60
2018-12-21T09:49:07.087Z,12.60
2018-12-21T09:51:45.366Z,12.60
2018-12-21T09:54:19.509Z,12.60
2018-12-21T09:56:52.367Z,12.60
2018-12-21T09:59:23.577Z,12.60
2018-12-21T10:01:58.059Z,12.60
2018-12-21T10:04:29.061Z,12.60
2018-12-21T10:07:04.828Z,12.60
2018-12-21T10:09:35.946Z,12.70
2018-12-21T10:12:07.398Z,12.60
2018-12-21T10:14:38.963Z,12.70
2018-12-21T10:17:12.932Z,12.70
2018-12-21T10:19:44.787Z,12.70
2018-12-21T10:22:17.455Z,12.70
2018-12-21T10:24:54.140Z,12.70
2018-12-21T10:27:27.997Z,12.80
2018-12-21T10:30:12.630Z,12.80
2018-12-21T10:32:50.362Z,12.80
2018-12-21T10:35:24.022Z,12.90
2018-12-21T10:38:02.443Z,12.90
2018-12-21T10:40:38.831Z,13.10
2018-12-21T10:43:13.086Z,13.00
2018-12-21T10:50:44.018Z,13.10
2018-12-21T10:53:18.072Z,13.10
2018-12-21T10:55:50.430Z,13.10
2018-12-21T10:58:21.616Z,13.10
2018-12-21T11:00:54.108Z,13.10
2018-12-21T11:03:30.232Z,13.10
2018-12-21T11:06:12.316Z,13.10
2018-12-21T11:08:43.790Z,13.20
2018-12-21T11:11:16.420Z,13.20
2018-12-21T11:13:48.252Z,13.30
2018-12-21T11:16:20.981Z,13.50
2018-12-21T11:18:56.250Z,13.50
2018-12-21T11:21:30.247Z,13.60
2018-12-21T11:24:01.700Z,13.70
2018-12-21T11:26:35.714Z,13.60
2018-12-21T11:29:09.713Z,13.70
2018-12-21T11:31:41.838Z,13.70
2018-12-21T11:34:22.322Z,13.70
2018-12-21T11:36:55.605Z,13.60
2018-12-21T11:39:33.014Z,13.60
2018-12-21T11:42:09.444Z,13.50
2018-12-21T11:44:43.063Z,13.50
2018-12-21T11:47:23.165Z,13.50
2018-12-21T11:49:55.012Z,13.60
2018-12-21T11:52:32.035Z,13.70
2018-12-21T11:55:06.336Z,13.70
2018-12-21T11:57:38.543Z,13.70
2018-12-21T12:00:10.387Z,13.70
2018-12-21T12:02:43.460Z,13.80
2018-12-21T12:05:15.277Z,13.80
2018-12-21T12:07:55.274Z,13.80
2018-12-21T12:10:27.036Z,13.80
2018-12-21T12:13:07.816Z,13.70
2018-12-21T12:15:50.050Z,13.70
2018-12-21T12:18:25.602Z,13.70
2018-12-21T12:20:57.111Z,13.70
2018-12-21T12:23:31.107Z,13.70
2018-12-21T12:26:10.925Z,13.70
2018-12-21T12:28:43.234Z,13.80
2018-12-21T12:33:50.518Z,13.60
2018-12-21T12:36:22.438Z,13.60
2018-12-21T12:38:55.597Z,13.60
2018-12-21T12:41:29.142Z,13.60
2018-12-21T12:44:02.392Z,13.60
2018-12-21T12:46:33.533Z,13.60
2018-12-21T12:49:08.326Z,13.60
2018-12-21T12:51:49.962Z,13.60
2018-12-21T12:54:29.003Z,13.50
2018-12-21T12:56:59.964Z,13.50
2018-12-21T12:59:35.112Z,13.50
2018-12-21T13:02:09.256Z,13.50
2018-12-21T13:04:43.826Z,13.40
2018-12-21T13:07:17.643Z,13.30
2018-12-21T13:09:49.696Z,13.40
2018-12-21T13:12:20.858Z,13.30
2018-12-21T13:14:55.485Z,13.30
2018-12-21T13:17:33.015Z,13.30
2018-12-21T13:20:05.875Z,13.30
2018-12-21T13:22:36.839Z,13.30
2018-12-21T13:25:12.800Z,13.30
2018-12-21T13:27:44.214Z,13.30
2018-12-21T13:30:15.987Z,13.20
2018-12-21T13:32:54.133Z,13.20
2018-12-21T13:35:31.738Z,13.20
2018-12-21T13:38:03.805Z,13.20
2018-12-21T13:40:44.453Z,13.10
2018-12-21T13:43:22.226Z,13.10
2018-12-21T13:45:56.778Z,13.10
2018-12-21T13:48:36.704Z,13.10
2018-12-21T13:51:08.785Z,13.20
2018-12-21T13:53:40.401Z,13.20
2018-12-21T13:56:14.514Z,13.10
2018-12-21T13:58:45.615Z,13.10
2018-12-21T14:01:17.619Z,13.10
2018-12-21T14:03:48.859Z,13.00
2018-12-21T14:06:22.134Z,13.00
2018-12-21T14:08:53.457Z,13.00
2018-12-21T14:11:27.591Z,12.90
2018-12-21T14:14:05.259Z,12.90
2018-12-21T14:16:37.316Z,13.00
2018-12-21T14:19:09.590Z,13.00
2018-12-21T14:21:41.697Z,12.90
2018-12-21T14:24:16.553Z,12.90
2018-12-21T14:26:51.412Z,12.90
2018-12-21T14:29:25.356Z,12.90
2018-12-21T14:31:57.892Z,12.90
2018-12-21T14:34:29.229Z,12.90
2018-12-21T14:37:03.400Z,12.80
2018-12-21T14:39:37.372Z,12.80
2018-12-21T14:42:10.021Z,12.70
2018-12-21T14:44:45.430Z,12.80
2018-12-21T14:47:21.801Z,12.70
2018-12-21T14:49:55.186Z,12.70
2018-12-21T14:52:30.756Z,12.70
2018-12-21T14:55:02.750Z,12.60
2018-12-21T14:57:35.120Z,12.70
2018-12-21T15:00:10.652Z,12.60
2018-12-21T15:02:43.650Z,12.60
2018-12-21T15:05:18.383Z,12.60
2018-12-21T15:07:55.249Z,12.60
2018-12-21T15:10:27.336Z,12.60
2018-12-21T15:13:00.134Z,12.60
2018-12-21T15:15:34.169Z,12.50
2018-12-21T15:18:07.220Z,12.60
2018-12-21T15:20:43.561Z,12.60
2018-12-21T15:23:14.941Z,12.50
2018-12-21T15:25:46.661Z,12.50
2018-12-21T15:28:20.797Z,12.50
2018-12-21T15:30:52.307Z,12.50
2018-12-21T15:33:26.763Z,12.40
2018-12-21T15:35:58.359Z,12.50
2018-12-21T15:38:30.961Z,12.40
2018-12-21T15:41:10.955Z,12.50
2018-12-21T15:43:43.106Z,12.50
2018-12-21T15:46:17.659Z,12.40
2018-12-21T15:48:51.919Z,12.40
2018-12-21T15:51:23.807Z,12.40
2018-12-21T15:53:56.465Z,12.40
2018-12-21T15:56:29.147Z,12.40
2018-12-21T15:59:01.427Z,12.40
2018-12-21T16:01:37.110Z,12.30
2018-12-21T16:04:07.737Z,12.30
2018-12-21T16:06:38.993Z,12.30
2018-12-21T16:09:13.413Z,12.30
2018-12-21T16:11:53.820Z,12.40
2018-12-21T16:14:34.234Z,12.40
2018-12-21T16:17:06.051Z,12.30
2018-12-21T16:19:40.403Z,12.30
2018-12-21T16:22:11.911Z,12.30
2018-12-21T16:24:45.985Z,12.30
2018-12-21T16:27:23.474Z,12.30
2018-12-21T16:29:56.391Z,12.30
2018-12-21T16:32:31.419Z,12.30
2018-12-21T16:35:04.253Z,12.30
2018-12-21T16:37:36.547Z,12.30
2018-12-21T16:40:18.299Z,12.30
2018-12-21T16:45:24.530Z,12.20
2018-12-21T16:47:55.740Z,12.30
2018-12-21T16:50:28.564Z,12.30
2018-12-21T16:53:06.742Z,12.20
2018-12-21T16:55:41.079Z,12.20
2018-12-21T16:58:15.073Z,12.30
2018-12-21T17:00:50.787Z,12.20
2018-12-21T17:03:27.327Z,12.20
2018-12-21T17:06:00.076Z,12.20
2018-12-21T17:08:31.999Z,12.20
2018-12-21T17:11:03.529Z,12.20
2018-12-21T17:13:35.090Z,12.20
2018-12-21T17:16:09.647Z,12.20
2018-12-21T17:18:43.948Z,12.20
2018-12-21T17:21:28.917Z,12.20
2018-12-21T17:24:02.440Z,12.20
2018-12-21T17:26:37.337Z,12.20
2018-12-21T17:29:11.101Z,12.20
2018-12-21T17:32:37.517Z,12.20
2018-12-21T17:35:15.733Z,12.10
2018-12-21T17:37:48.065Z,12.10
2018-12-21T17:40:20.491Z,12.10
2018-12-21T17:42:53.959Z,12.10
2018-12-21T17:45:28.657Z,12.10
2018-12-21T17:48:12.365Z,12.00
2018-12-21T17:50:43.405Z,12.00
2018-12-21T17:53:24.143Z,11.90
2018-12-21T17:56:09.415Z,12.00
2018-12-21T17:58:49.566Z,11.90
2018-12-21T18:04:36.809Z,12.00
2018-12-21T18:07:10.472Z,12.00
2018-12-21T18:09:47.835Z,11.90
2018-12-21T18:12:24.066Z,11.90
2018-12-21T18:15:07.133Z,11.90
2018-12-21T18:17:40.969Z,11.90
2018-12-21T18:20:16.498Z,11.90
2018-12-21T18:22:58.743Z,11.90
2018-12-21T18:25:39.615Z,11.90
2018-12-21T18:28:19.895Z,11.90
2018-12-21T18:31:04.385Z,11.90
2018-12-21T18:33:36.206Z,11.90
2018-12-21T18:36:12.372Z,11.80
2018-12-21T18:38:44.476Z,11.90
2018-12-21T18:41:21.040Z,11.80
2018-12-21T18:43:59.921Z,11.80
2018-12-21T18:46:37.359Z,11.90
2018-12-21T18:49:10.794Z,11.90
2018-12-21T18:51:44.983Z,11.90
2018-12-21T18:54:19.647Z,11.90
2018-12-21T18:56:56.012Z,11.90
2018-12-21T18:59:30.098Z,11.90
2018-12-21T19:04:35.521Z,11.80
2018-12-21T19:07:06.736Z,11.90
2018-12-21T19:09:41.832Z,11.80
2018-12-21T19:12:15.860Z,11.80
2018-12-21T19:14:50.361Z,11.90
2018-12-21T19:17:23.125Z,11.80
2018-12-21T19:20:00.785Z,11.80
2018-12-21T19:22:32.118Z,11.80
2018-12-21T19:25:04.862Z,11.80
2018-12-21T19:27:36.050Z,11.80
2018-12-21T19:30:09.979Z,11.80
2018-12-21T19:38:44.342Z,11.80
2018-12-21T19:41:19.801Z,11.70
2018-12-21T19:43:51.644Z,11.70
2018-12-21T19:46:27.230Z,11.70
2018-12-21T19:49:00.159Z,11.70
2018-12-21T19:51:32.125Z,11.70
2018-12-21T19:54:02.993Z,11.70
2018-12-21T19:56:43.654Z,11.70
2018-12-21T19:59:16.391Z,11.80
2018-12-21T20:01:51.828Z,11.70
2018-12-21T20:04:27.334Z,11.70
2018-12-21T20:07:00.000Z,11.70
2018-12-21T20:09:34.919Z,11.60
2018-12-21T20:12:06.829Z,11.70
2018-12-21T20:14:44.939Z,11.60
2018-12-21T20:17:22.852Z,11.60
2018-12-21T20:22:55.552Z,11.70
2018-12-21T20:25:40.086Z,11.70
2018-12-21T20:28:13.927Z,11.60
2018-12-21T20:30:50.072Z,11.60
2018-12-21T20:33:24.323Z,11.60
2018-12-21T20:35:56.443Z,11.60
2018-12-21T20:38:36.211Z,11.60
2018-12-21T20:41:10.863Z,11.60
2018-12-21T20:43:42.193Z,11.50
2018-12-21T20:46:16.421Z,11.50
2018-12-21T20:48:53.196Z,11.50
2018-12-21T20:51:24.877Z,11.40
2018-12-21T20:53:56.705Z,11.50
2018-12-21T20:56:30.839Z,11.40
2018-12-21T20:59:16.886Z,11.40
2018-12-21T21:01:48.829Z,11.40
2018-12-21T21:04:24.338Z,11.30
2018-12-21T21:06:55.870Z,11.40
2018-12-21T21:09:31.143Z,11.40
2018-12-21T21:12:05.074Z,11.40
2018-12-21T21:14:39.128Z,11.30
2018-12-21T21:17:10.946Z,11.30
2018-12-21T21:19:44.204Z,11.30
2018-12-21T21:22:16.098Z,11.30
2018-12-21T21:24:50.348Z,11.30
2018-12-21T21:27:30.389Z,11.30
2018-12-21T21:29:58.825Z,11.30
2018-12-21T21:32:30.696Z,11.40
2018-12-21T21:35:03.962Z,11.40
2018-12-21T21:37:37.298Z,11.40
2018-12-21T21:40:12.526Z,11.40
2018-12-21T21:42:46.647Z,11.30
2018-12-21T21:45:18.012Z,11.30
2018-12-21T21:47:49.839Z,11.30
2018-12-21T21:50:21.091Z,11.30
2018-12-21T21:52:52.135Z,11.30
2018-12-21T21:55:26.360Z,11.30
2018-12-21T21:57:57.253Z,11.30
2018-12-21T22:00:32.627Z,11.30
2018-12-21T22:03:04.657Z,11.30
2018-12-21T22:05:35.545Z,11.30
2018-12-21T22:08:08.886Z,11.20
2018-12-21T22:10:40.411Z,11.20
2018-12-21T22:13:11.256Z,11.20
2018-12-21T22:15:44.742Z,11.10
2018-12-21T22:18:16.024Z,11.10
2018-12-21T22:20:49.352Z,11.10
2018-12-21T22:23:20.988Z,11.10
2018-12-21T22:25:53.489Z,11.10
2018-12-21T22:28:25.012Z,11.10
2018-12-21T22:30:58.373Z,11.10
2018-12-21T22:33:29.891Z,11.20
2018-12-21T22:36:00.905Z,11.20
2018-12-21T22:38:32.200Z,11.10
2018-12-21T22:41:05.420Z,11.10
2018-12-21T22:43:37.004Z,11.10
2018-12-21T22:46:08.068Z,11.10
2018-12-21T22:48:39.350Z,11.10
2018-12-21T22:51:10.573Z,11.10
2018-12-21T22:53:41.544Z,11.10
2018-12-21T22:56:11.351Z,11.10
2018-12-21T22:58:42.496Z,11.10
2018-12-21T23:01:13.883Z,11.10
2018-12-21T23:03:45.026Z,11.10
2018-12-21T23:06:18.519Z,11.10
2018-12-21T23:08:52.530Z,11.10
2018-12-21T23:11:24.261Z,11.10
2018-12-21T23:13:57.613Z,11.10
2018-12-21T23:16:29.173Z,11.10
2018-12-21T23:19:00.567Z,11.10
2018-12-21T23:21:31.671Z,11.00
2018-12-21T23:24:05.277Z,11.00
2018-12-21T23:26:36.714Z,11.00
2018-12-21T23:29:07.938Z,11.00
2018-12-21T23:31:39.728Z,11.00
2018-12-21T23:34:10.840Z,11.00
2018-12-21T23:36:42.186Z,11.00
2018-12-21T23:39:15.568Z,10.90
2018-12-21T23:41:46.675Z,10.90
2018-12-21T23:44:20.633Z,10.90
2018-12-21T23:46:54.162Z,10.90
2018-12-21T23:49:28.065Z,11.00
2018-12-21T23:51:59.581Z,11.00
2018-12-21T23:54:30.933Z,10.90
2018-12-21T23:57:03.539Z,10.90
2018-12-21T23:59:36.282Z,10.90
